»·PEaware :: N648CR KHND-KRNO

N648CR :: KHND-KRNO

FLIGHT INFORMATION

Flight Status: Arrived
Operator: Privately registered:
United States
More flights under this callsign
Pilot: James D. (19799)
Aircraft: Unknown
(SF50)
More flights by this aircraft type
Origin: KHND Henderson
United States
Destination: KRNO Reno/Tahoe Intl
United States
More flights between these airports :: More routes between these airports
Route: +
File this flight plan on PilotEdge
Remarks:
Altitude:
(Current/Filed)
0ft
Speed:
(Current/Filed)
0kts
Departed: 29-Jan-20 12:14 PM
Arrived: 29-Jan-20 01:35 PM
Distance/Time
Traveled:
305nm/1:21
Distance/Time
To Go:
Arrived

Flight Plot

Page will automatically refresh every two minutes.

Flight plan parsing failed; only flown route is shown


Map Options




Map Legend


Flown Route
Filed Route
Departure Airport
Arrival Airport
Navaid (VOR, NDB)
Fix

Horizontal Profiles

Position Reports

Time Latitude Longitude Heading Altitude Ground
Speed
29-Jan-20 12:12 35.915753 -115.106467 178 5497ft 265kts
29-Jan-20 12:13 35.839952 -115.105038 178 5495ft 248kts
29-Jan-20 12:14 35.781191 -115.121269 220 5501ft 230kts
29-Jan-20 12:15 35.743769 -115.183664 257 6855ft 193kts
29-Jan-20 12:16 35.731006 -115.263349 275 6489ft 237kts
29-Jan-20 12:17 35.762229 -115.331197 315 6500ft 240kts
29-Jan-20 12:18 35.794040 -115.404638 274 6776ft 265kts
29-Jan-20 12:19 35.809933 -115.483608 315 6801ft 245kts
29-Jan-20 12:20 35.834886 -115.563099 286 7930ft 265kts
29-Jan-20 12:21 35.848455 -115.653326 286 9416ft 272kts
29-Jan-20 12:22 35.862407 -115.746110 286 10903ft 275kts
29-Jan-20 12:23 35.876232 -115.839017 287 12381ft 275kts
29-Jan-20 12:24 35.889926 -115.931508 288 13856ft 273kts
29-Jan-20 12:25 35.931871 -116.000285 330 14530ft 263kts
29-Jan-20 12:26 35.992294 -116.052769 332 14530ft 267kts
29-Jan-20 12:27 36.053745 -116.105017 332 14531ft 269kts
29-Jan-20 12:28 36.115565 -116.157626 332 14540ft 270kts
29-Jan-20 12:29 36.177577 -116.210498 332 14540ft 271kts
29-Jan-20 12:30 36.239735 -116.263602 332 14540ft 272kts
29-Jan-20 12:31 36.301878 -116.316797 332 14539ft 272kts
29-Jan-20 12:32 36.364202 -116.370251 332 14539ft 272kts
29-Jan-20 12:33 36.426265 -116.423585 332 14538ft 272kts
29-Jan-20 12:34 36.488373 -116.477066 332 14538ft 272kts
29-Jan-20 12:35 36.550508 -116.530677 332 14537ft 272kts
29-Jan-20 12:36 36.612558 -116.584318 331 14537ft 271kts
29-Jan-20 12:37 36.674497 -116.637974 332 14536ft 271kts
29-Jan-20 12:38 36.736056 -116.691404 331 14533ft 271kts
29-Jan-20 12:39 36.798106 -116.745309 332 14532ft 270kts
29-Jan-20 12:40 36.860251 -116.797333 332 14552ft 269kts
29-Jan-20 12:41 36.922514 -116.849410 332 14592ft 269kts
29-Jan-20 12:42 36.984561 -116.901403 332 14632ft 268kts
29-Jan-20 12:43 37.046359 -116.953299 332 14633ft 267kts
29-Jan-20 12:44 37.107679 -117.004894 331 14638ft 265kts
29-Jan-20 12:45 37.169281 -117.056814 331 14640ft 267kts
29-Jan-20 12:46 37.231061 -117.109012 331 14640ft 268kts
29-Jan-20 12:47 37.292865 -117.161298 331 14639ft 269kts
29-Jan-20 12:48 37.354760 -117.213812 331 14640ft 269kts
29-Jan-20 12:49 37.416649 -117.266385 331 14642ft 269kts
29-Jan-20 12:50 37.474891 -117.326548 325 14650ft 272kts
29-Jan-20 12:51 37.532157 -117.388969 325 14639ft 272kts
29-Jan-20 12:52 37.589150 -117.451271 325 14633ft 272kts
29-Jan-20 12:53 37.645687 -117.513180 325 14471ft 266kts
29-Jan-20 12:54 37.700924 -117.573768 325 14471ft 263kts
29-Jan-20 12:55 37.755993 -117.634299 325 14473ft 261kts
29-Jan-20 12:56 37.810281 -117.694095 324 14478ft 261kts
29-Jan-20 12:57 37.864891 -117.754368 324 14485ft 261kts
29-Jan-20 12:58 37.919477 -117.814743 324 14491ft 260kts
29-Jan-20 12:59 37.973911 -117.875071 324 14488ft 261kts
29-Jan-20 13:00 38.028466 -117.935661 324 14483ft 261kts
29-Jan-20 13:01 38.083045 -117.996398 324 14484ft 260kts
29-Jan-20 13:02 38.137685 -118.057330 324 14500ft 261kts
29-Jan-20 13:03 38.192207 -118.118257 324 14506ft 262kts
29-Jan-20 13:04 38.247052 -118.179676 324 14512ft 262kts
29-Jan-20 13:05 38.301753 -118.241059 324 14516ft 262kts
29-Jan-20 13:06 38.356345 -118.302448 324 14492ft 263kts
29-Jan-20 13:07 38.407827 -118.368445 297 14489ft 279kts
29-Jan-20 13:08 38.428951 -118.464254 293 14501ft 281kts
29-Jan-20 13:09 38.449751 -118.560588 293 14508ft 281kts
29-Jan-20 13:10 38.479120 -118.649967 319 14523ft 264kts
29-Jan-20 13:11 38.534084 -118.708718 336 14530ft 255kts
29-Jan-20 13:12 38.596634 -118.751998 336 14526ft 256kts
29-Jan-20 13:13 38.659263 -118.795327 336 14525ft 256kts
29-Jan-20 13:14 38.721881 -118.838704 336 14524ft 255kts
29-Jan-20 13:15 38.784118 -118.881804 336 14524ft 254kts
29-Jan-20 13:16 38.846383 -118.924821 336 14523ft 253kts
29-Jan-20 13:17 38.908281 -118.967503 336 14523ft 252kts
29-Jan-20 13:18 38.970378 -119.009583 336 14522ft 253kts
29-Jan-20 13:19 39.032957 -119.051083 336 14522ft 252kts
29-Jan-20 13:20 39.093114 -119.096546 308 14504ft 265kts
29-Jan-20 13:21 39.128915 -119.182199 318 13713ft 271kts
29-Jan-20 13:22 39.182611 -119.247601 322 12771ft 258kts
29-Jan-20 13:23 39.235232 -119.308986 322 11781ft 252kts
29-Jan-20 13:24 39.287255 -119.369663 321 10791ft 252kts
29-Jan-20 13:25 39.339180 -119.430379 321 9802ft 253kts
29-Jan-20 13:26 39.386741 -119.496678 293 8794ft 260kts
29-Jan-20 13:27 39.414774 -119.579592 298 7785ft 232kts
29-Jan-20 13:28 39.443676 -119.648526 304 6904ft 206kts
29-Jan-20 13:29 39.475698 -119.709380 311 6223ft 204kts
29-Jan-20 13:30 39.528615 -119.725092 358 5559ft 197kts
29-Jan-20 13:31 39.562125 -119.740546 237 5192ft 144kts
29-Jan-20 13:32 39.535472 -119.766415 193 5029ft 96kts
29-Jan-20 13:33 39.511068 -119.766820 184 4420ft 65kts
29-Jan-20 13:34 39.502870 -119.765981 92 4419ft 6kts
29-Jan-20 13:35 39.502794 -119.765771 155 4419ft 1kts
29-Jan-20 13:37 39.500613 -119.765246 154 4419ft 7kts
29-Jan-20 13:38 39.499919 -119.764701 96 4419ft 0kts

Navigation Log

Ident Type
Flight plan parsing failed, navigation log unavailable